createdAt,value
2022-12-01T00:01:23.238Z,55.92
2022-12-01T00:03:50.644Z,52.47
2022-12-01T00:06:20.670Z,55.33
2022-12-01T00:11:36.475Z,54.92
2022-12-01T00:14:04.277Z,60.50
2022-12-01T00:16:31.778Z,61.05
2022-12-01T00:18:59.180Z,62.05
2022-12-01T00:21:27.413Z,62.03
2022-12-01T00:23:56.742Z,65.75
2022-12-01T00:26:25.266Z,60.22
2022-12-01T00:28:54.701Z,54.30
2022-12-01T00:31:22.668Z,57.25
2022-12-01T00:33:50.559Z,58.90
2022-12-01T00:36:18.190Z,56.45
2022-12-01T00:38:46.259Z,53.70
2022-12-01T00:41:13.820Z,58.05
2022-12-01T00:43:41.372Z,55.65
2022-12-01T00:46:08.805Z,59.53
2022-12-01T00:48:36.141Z,63.90
2022-12-01T00:51:03.732Z,53.33
2022-12-01T00:53:31.141Z,50.90
2022-12-01T00:55:58.415Z,56.88
2022-12-01T00:58:25.871Z,56.38
2022-12-01T01:01:01.410Z,59.42
2022-12-01T01:03:29.593Z,54.53
2022-12-01T01:05:56.987Z,56.25
2022-12-01T01:08:24.254Z,64.30
2022-12-01T01:10:51.496Z,60.20
2022-12-01T01:13:19.008Z,63.17
2022-12-01T01:15:46.302Z,57.05
2022-12-01T01:18:13.642Z,58.00
2022-12-01T01:20:40.965Z,60.95
2022-12-01T01:23:08.482Z,65.55
2022-12-01T01:25:35.869Z,59.95
2022-12-01T01:28:03.379Z,61.97
2022-12-01T01:30:30.735Z,64.93
2022-12-01T01:32:59.092Z,62.88
2022-12-01T01:35:27.107Z,57.67
2022-12-01T01:37:54.604Z,57.83
2022-12-01T01:40:22.071Z,57.75
2022-12-01T01:42:49.393Z,57.45
2022-12-01T01:45:29.719Z,56.78
2022-12-01T01:48:00.022Z,61.50
2022-12-01T01:50:28.992Z,56.65
2022-12-01T01:53:01.313Z,58.20
2022-12-01T01:55:30.233Z,57.65
2022-12-01T01:57:57.889Z,63.17
2022-12-01T02:00:25.516Z,66.05
2022-12-01T02:02:54.041Z,60.33
2022-12-01T02:05:24.792Z,62.88
2022-12-01T02:07:55.247Z,59.15
2022-12-01T02:10:38.032Z,63.10
2022-12-01T02:13:55.788Z,62.85
2022-12-01T02:16:49.642Z,67.72
2022-12-01T02:19:56.012Z,61.00
2022-12-01T02:22:54.452Z,63.85
2022-12-01T02:25:37.986Z,55.95
2022-12-01T02:28:23.946Z,66.68
2022-12-01T02:30:57.062Z,64.10
2022-12-01T02:33:40.397Z,68.20
2022-12-01T02:36:13.775Z,65.85
2022-12-01T02:38:47.471Z,61.53
2022-12-01T02:41:25.249Z,59.42
2022-12-01T02:44:20.931Z,59.67
2022-12-01T02:46:59.666Z,55.55
2022-12-01T02:49:32.235Z,65.22
2022-12-01T02:52:00.939Z,64.75
2022-12-01T02:54:31.840Z,58.08
2022-12-01T02:56:59.232Z,59.63
2022-12-01T02:59:26.600Z,63.13
2022-12-01T03:02:42.338Z,52.85
2022-12-01T03:05:24.230Z,58.03
2022-12-01T03:08:13.906Z,60.08
2022-12-01T03:10:48.719Z,53.78
2022-12-01T03:13:53.013Z,56.35
2022-12-01T03:16:31.521Z,62.78
2022-12-01T03:19:44.177Z,57.25
2022-12-01T03:22:23.198Z,53.00
2022-12-01T03:24:53.497Z,58.07
2022-12-01T03:27:27.213Z,54.33
2022-12-01T03:29:58.130Z,53.25
2022-12-01T03:32:33.798Z,55.80
2022-12-01T03:35:10.882Z,55.60
2022-12-01T03:37:44.248Z,55.15
2022-12-01T03:40:18.166Z,56.75
2022-12-01T03:42:52.598Z,52.90
2022-12-01T03:45:42.445Z,55.17
2022-12-01T03:50:54.414Z,54.53
2022-12-01T03:53:27.420Z,56.70
2022-12-01T03:56:02.971Z,62.33
2022-12-01T03:58:45.234Z,55.10
2022-12-01T04:01:13.113Z,54.67
2022-12-01T04:03:40.757Z,55.80
2022-12-01T04:06:08.110Z,52.80
2022-12-01T04:08:37.557Z,50.78
2022-12-01T04:11:29.460Z,51.40
2022-12-01T04:13:59.661Z,51.97
2022-12-01T04:16:27.071Z,49.35
2022-12-01T04:18:54.456Z,51.63
2022-12-01T04:21:21.786Z,54.33
2022-12-01T04:24:01.157Z,56.60
2022-12-01T04:26:30.476Z,56.83
2022-12-01T04:29:01.439Z,59.33
2022-12-01T04:31:29.705Z,54.38
2022-12-01T04:33:59.040Z,53.15
2022-12-01T04:36:29.917Z,52.15
2022-12-01T04:38:57.479Z,47.22
2022-12-01T04:41:24.882Z,52.80
2022-12-01T04:43:56.008Z,56.75
2022-12-01T04:46:24.377Z,51.42
2022-12-01T04:48:51.950Z,56.13
2022-12-01T04:51:21.303Z,54.97
2022-12-01T04:53:49.939Z,49.72
2022-12-01T04:56:17.464Z,56.28
2022-12-01T04:58:45.803Z,44.70
2022-12-01T05:01:16.202Z,52.88
2022-12-01T05:03:46.771Z,52.50
2022-12-01T05:06:18.202Z,52.83
2022-12-01T05:08:46.173Z,53.33
2022-12-01T05:11:14.595Z,55.03
2022-12-01T05:13:44.770Z,52.28
2022-12-01T05:16:19.548Z,55.50
2022-12-01T05:19:24.815Z,49.13
2022-12-01T05:21:52.502Z,46.78
2022-12-01T05:24:21.199Z,40.90
2022-12-01T05:26:49.211Z,42.92
2022-12-01T05:29:16.653Z,49.88
2022-12-01T05:31:45.904Z,45.55
2022-12-01T05:34:13.457Z,49.13
2022-12-01T05:36:40.920Z,49.72
2022-12-01T05:39:08.324Z,50.67
2022-12-01T05:41:35.676Z,57.78
2022-12-01T05:44:02.997Z,50.42
2022-12-01T05:46:30.345Z,49.90
2022-12-01T05:48:57.640Z,56.95
2022-12-01T05:51:24.971Z,50.65
2022-12-01T05:53:52.276Z,51.70
2022-12-01T05:56:19.729Z,49.45
2022-12-01T05:58:50.125Z,56.03
2022-12-01T06:01:17.661Z,50.50
2022-12-01T06:03:45.047Z,51.67
2022-12-01T06:06:12.399Z,46.90
2022-12-01T06:08:39.807Z,49.67
2022-12-01T06:11:07.118Z,52.63
2022-12-01T06:13:34.484Z,48.45
2022-12-01T06:16:04.662Z,48.55
2022-12-01T06:18:34.852Z,52.55
2022-12-01T06:21:03.053Z,52.08
2022-12-01T06:23:30.866Z,52.92
2022-12-01T06:25:58.746Z,48.75
2022-12-01T06:28:26.148Z,50.35
2022-12-01T06:30:56.636Z,42.22
2022-12-01T06:33:28.566Z,43.50
2022-12-01T06:36:04.705Z,45.85
2022-12-01T06:38:34.182Z,59.72
2022-12-01T06:41:01.833Z,45.78
2022-12-01T06:43:29.932Z,49.60
2022-12-01T06:46:01.698Z,42.78
2022-12-01T06:48:31.566Z,44.78
2022-12-01T06:51:00.194Z,45.40
2022-12-01T06:53:29.056Z,46.85
2022-12-01T06:56:01.105Z,42.63
2022-12-01T06:58:28.766Z,42.90
2022-12-01T07:00:57.426Z,38.30
2022-12-01T07:03:24.934Z,43.75
2022-12-01T07:06:00.546Z,43.22
2022-12-01T07:08:32.394Z,44.75
2022-12-01T07:11:07.604Z,43.88
2022-12-01T07:13:35.869Z,46.55
2022-12-01T07:16:03.731Z,39.60
2022-12-01T07:18:32.182Z,47.15
2022-12-01T07:21:11.835Z,55.05
2022-12-01T07:23:39.983Z,40.63
2022-12-01T07:26:13.104Z,44.13
2022-12-01T07:28:40.938Z,40.28
2022-12-01T07:31:11.084Z,44.83
2022-12-01T07:33:40.149Z,39.95
2022-12-01T07:36:08.476Z,41.60
2022-12-01T07:38:37.617Z,44.22
2022-12-01T07:41:11.826Z,45.08
2022-12-01T07:43:39.668Z,53.75
2022-12-01T07:46:10.554Z,49.10
2022-12-01T07:48:39.220Z,42.53
2022-12-01T07:51:12.386Z,44.97
2022-12-01T07:53:39.730Z,44.63
2022-12-01T07:56:08.965Z,36.40
2022-12-01T07:58:37.192Z,32.33
2022-12-01T08:01:10.129Z,39.33
2022-12-01T08:03:37.980Z,38.85
2022-12-01T08:06:06.313Z,45.10
2022-12-01T08:08:35.599Z,38.65
2022-12-01T08:11:10.176Z,37.95
2022-12-01T08:13:38.997Z,36.85
2022-12-01T08:16:07.990Z,41.03
2022-12-01T08:18:36.523Z,38.33
2022-12-01T08:21:04.786Z,36.53
2022-12-01T08:23:32.415Z,38.15
2022-12-01T08:26:13.037Z,36.33
2022-12-01T08:28:41.244Z,38.00
2022-12-01T08:31:19.776Z,36.72
2022-12-01T08:33:48.826Z,36.28
2022-12-01T08:36:16.659Z,38.90
2022-12-01T08:38:45.530Z,35.30
2022-12-01T08:41:13.580Z,31.67
2022-12-01T08:44:00.333Z,43.30
2022-12-01T08:46:34.168Z,34.95
2022-12-01T08:49:02.459Z,35.20
2022-12-01T08:51:30.254Z,40.40
2022-12-01T08:53:59.771Z,39.17
2022-12-01T08:56:33.918Z,35.63
2022-12-01T08:59:01.483Z,34.75
2022-12-01T09:01:29.407Z,37.05
2022-12-01T09:04:08.765Z,30.88
2022-12-01T09:06:41.929Z,33.25
2022-12-01T09:09:11.690Z,31.95
2022-12-01T09:11:45.977Z,34.13
2022-12-01T09:14:15.530Z,31.48
2022-12-01T09:16:44.499Z,39.92
2022-12-01T09:19:13.427Z,30.50
2022-12-01T09:21:42.709Z,32.63
2022-12-01T09:24:11.055Z,29.40
2022-12-01T09:26:38.442Z,30.17
2022-12-01T09:29:09.015Z,26.60
2022-12-01T09:31:37.994Z,32.67
2022-12-01T09:34:09.150Z,28.63
2022-12-01T09:36:37.424Z,28.70
2022-12-01T09:39:09.122Z,31.45
2022-12-01T09:41:57.758Z,25.88
2022-12-01T09:44:34.896Z,24.50
2022-12-01T09:47:28.948Z,28.40
2022-12-01T09:50:24.043Z,29.52
2022-12-01T09:53:00.404Z,32.05
2022-12-01T09:55:30.403Z,32.90
2022-12-01T10:00:32.646Z,28.35
2022-12-01T10:03:09.808Z,29.33
2022-12-01T10:06:24.989Z,31.08
2022-12-01T10:08:43.360Z,31.17
2022-12-01T10:11:27.523Z,26.95
2022-12-01T10:13:54.931Z,25.48
2022-12-01T10:16:38.725Z,28.65
2022-12-01T10:19:22.096Z,28.33
2022-12-01T10:22:12.696Z,24.80
2022-12-01T10:25:06.302Z,24.15
2022-12-01T10:27:40.941Z,29.15
2022-12-01T10:30:15.790Z,25.60
2022-12-01T10:32:55.177Z,28.30
2022-12-01T10:35:27.290Z,26.35
2022-12-01T10:38:06.877Z,27.73
2022-12-01T10:40:35.358Z,22.02
2022-12-01T10:43:03.088Z,24.48
2022-12-01T10:45:44.042Z,24.10
2022-12-01T10:48:15.711Z,23.45
2022-12-01T10:50:55.616Z,22.17
2022-12-01T10:55:59.830Z,19.52
2022-12-01T10:58:27.451Z,22.23
2022-12-01T11:01:00.108Z,18.30
2022-12-01T11:03:31.750Z,21.75
2022-12-01T11:06:02.088Z,22.27
2022-12-01T11:08:29.368Z,14.85
2022-12-01T11:10:56.891Z,16.33
2022-12-01T11:13:30.960Z,15.45
2022-12-01T11:16:01.595Z,21.00
2022-12-01T11:18:39.665Z,21.85
2022-12-01T11:21:15.996Z,19.23
2022-12-01T11:23:49.006Z,17.20
2022-12-01T11:26:32.245Z,14.57
2022-12-01T11:29:07.962Z,17.05
2022-12-01T11:31:48.858Z,17.23
2022-12-01T11:34:27.490Z,16.90
2022-12-01T11:37:00.568Z,17.08
2022-12-01T11:39:32.492Z,16.83
2022-12-01T11:42:04.332Z,17.50
2022-12-01T11:44:50.929Z,17.10
2022-12-01T11:47:25.501Z,16.45
2022-12-01T11:49:58.642Z,15.82
2022-12-01T11:52:31.941Z,19.05
2022-12-01T11:55:20.730Z,17.30
2022-12-01T11:57:50.727Z,16.08
2022-12-01T12:00:24.539Z,15.65
2022-12-01T12:02:54.901Z,17.42
2022-12-01T12:06:01.377Z,18.65
2022-12-01T12:09:02.303Z,18.98
2022-12-01T12:12:16.651Z,22.42
2022-12-01T12:14:57.171Z,29.00
2022-12-01T12:17:50.227Z,19.38
2022-12-01T12:20:42.636Z,16.95
2022-12-01T12:23:31.986Z,19.45
2022-12-01T12:26:27.634Z,20.02
2022-12-01T12:29:15.121Z,27.38
2022-12-01T12:32:08.812Z,38.65
2022-12-01T12:34:54.497Z,26.75
2022-12-01T12:37:43.152Z,21.33
2022-12-01T12:40:22.521Z,24.88
2022-12-01T12:43:14.843Z,21.80
2022-12-01T12:46:19.550Z,29.52
2022-12-01T12:49:23.408Z,21.15
2022-12-01T12:52:17.520Z,19.15
2022-12-01T12:55:11.385Z,32.45
2022-12-01T12:57:45.791Z,37.45
2022-12-01T13:00:13.147Z,29.10
2022-12-01T13:02:42.281Z,26.25
2022-12-01T13:05:21.076Z,38.63
2022-12-01T13:08:03.997Z,33.85
2022-12-01T13:10:42.823Z,38.25
2022-12-01T13:13:19.048Z,32.70
2022-12-01T13:15:50.584Z,50.90
2022-12-01T13:18:37.590Z,23.40
2022-12-01T13:21:06.049Z,26.55
2022-12-01T13:23:36.501Z,29.90
2022-12-01T13:26:08.190Z,25.65
2022-12-01T13:28:55.369Z,26.85
2022-12-01T13:31:23.440Z,25.27
2022-12-01T13:33:58.249Z,22.75
2022-12-01T13:39:20.744Z,25.25
2022-12-01T13:42:00.135Z,26.45
2022-12-01T13:44:30.693Z,25.67
2022-12-01T13:47:09.774Z,30.92
2022-12-01T13:49:58.451Z,27.50
2022-12-01T13:52:32.265Z,27.70
2022-12-01T13:55:08.398Z,26.70
2022-12-01T13:57:44.790Z,34.05
2022-12-01T14:00:27.040Z,33.50
2022-12-01T14:03:13.091Z,34.85
2022-12-01T14:05:40.633Z,41.38
2022-12-01T14:08:23.468Z,42.70
2022-12-01T14:10:58.640Z,32.28
2022-12-01T14:13:28.214Z,28.48
2022-12-01T14:16:03.918Z,30.30
2022-12-01T14:18:33.153Z,34.83
2022-12-01T14:21:04.564Z,35.07
2022-12-01T14:23:36.983Z,45.03
2022-12-01T14:26:16.029Z,37.83
2022-12-01T14:28:55.749Z,33.67
2022-12-01T14:31:25.046Z,33.78
2022-12-01T14:33:57.068Z,44.40
2022-12-01T14:36:24.352Z,47.85
2022-12-01T14:38:57.499Z,34.42
2022-12-01T14:41:26.389Z,38.88
2022-12-01T14:44:05.223Z,32.95
2022-12-01T14:46:41.256Z,36.03
2022-12-01T14:49:20.227Z,36.83
2022-12-01T14:51:51.192Z,45.85
2022-12-01T14:54:26.323Z,40.75
2022-12-01T14:57:00.201Z,29.83
2022-12-01T14:59:31.374Z,33.20
2022-12-01T15:02:08.977Z,44.33
2022-12-01T15:05:13.930Z,35.95
2022-12-01T15:07:46.279Z,34.85
2022-12-01T15:10:16.456Z,34.65
2022-12-01T15:12:43.859Z,36.22
2022-12-01T15:15:24.350Z,40.30
2022-12-01T15:17:55.448Z,36.35
2022-12-01T15:20:33.290Z,40.47
2022-12-01T15:23:08.787Z,42.13
2022-12-01T15:25:37.135Z,39.90
2022-12-01T15:28:12.579Z,52.75
2022-12-01T15:30:43.102Z,51.80
2022-12-01T15:33:27.743Z,49.17
2022-12-01T15:35:58.795Z,43.58
2022-12-01T15:38:31.218Z,43.13
2022-12-01T15:41:27.773Z,40.88
2022-12-01T15:44:00.723Z,56.00
2022-12-01T15:46:30.660Z,65.78
2022-12-01T15:51:50.755Z,138.18
2022-12-01T15:54:23.223Z,176.18
2022-12-01T15:56:56.107Z,174.00
2022-12-01T15:59:44.541Z,219.52
2022-12-01T16:02:33.549Z,54.35
2022-12-01T16:05:13.047Z,102.87
2022-12-01T16:10:32.978Z,57.88
2022-12-01T16:13:40.220Z,61.92
2022-12-01T16:16:23.006Z,74.18
2022-12-01T16:18:58.298Z,69.35
2022-12-01T16:21:26.505Z,66.28
2022-12-01T16:24:05.052Z,75.45
2022-12-01T16:26:33.961Z,58.22
2022-12-01T16:29:02.585Z,41.50
2022-12-01T16:31:29.984Z,46.08
2022-12-01T16:34:13.784Z,45.13
2022-12-01T16:36:46.485Z,44.70
2022-12-01T16:39:14.748Z,48.45
2022-12-01T16:41:46.981Z,46.45
2022-12-01T16:44:28.688Z,43.72
2022-12-01T16:46:56.786Z,47.97
2022-12-01T16:49:24.179Z,45.53
2022-12-01T16:51:56.374Z,42.95
2022-12-01T16:54:24.397Z,50.20
2022-12-01T16:56:51.703Z,52.05
2022-12-01T16:59:20.158Z,50.65
2022-12-01T17:01:47.583Z,43.72
2022-12-01T17:04:15.121Z,53.35
2022-12-01T17:06:42.455Z,49.40
2022-12-01T17:09:09.860Z,51.78
2022-12-01T17:11:38.230Z,48.25
2022-12-01T17:14:05.511Z,47.90
2022-12-01T17:16:32.838Z,48.85
2022-12-01T17:19:01.181Z,65.57
2022-12-01T17:21:29.204Z,62.90
2022-12-01T17:23:56.685Z,57.38
2022-12-01T17:26:23.997Z,58.58
2022-12-01T17:28:54.826Z,62.20
2022-12-01T17:31:22.459Z,71.95
2022-12-01T17:33:50.561Z,58.15
2022-12-01T17:36:18.437Z,58.95
2022-12-01T17:38:46.966Z,56.92
2022-12-01T17:41:17.476Z,49.45
2022-12-01T17:43:44.854Z,52.58
2022-12-01T17:46:12.811Z,60.00
2022-12-01T17:48:43.358Z,53.00
2022-12-01T17:51:12.607Z,52.17
2022-12-01T17:53:40.381Z,55.22
2022-12-01T17:56:12.507Z,50.53
2022-12-01T17:58:40.178Z,49.45
2022-12-01T18:01:14.840Z,57.88
2022-12-01T18:03:42.566Z,50.08
2022-12-01T18:06:11.875Z,62.33
2022-12-01T18:08:39.837Z,70.57
2022-12-01T18:11:10.750Z,57.03
2022-12-01T18:13:39.908Z,69.88
2022-12-01T18:16:09.332Z,61.20
2022-12-01T18:18:37.742Z,54.67
2022-12-01T18:21:11.502Z,46.53
2022-12-01T18:23:38.901Z,44.20
2022-12-01T18:26:15.128Z,49.20
2022-12-01T18:28:44.088Z,48.97
2022-12-01T18:31:14.264Z,54.72
2022-12-01T18:33:43.573Z,55.03
2022-12-01T18:36:23.439Z,58.50
2022-12-01T18:38:52.165Z,50.78
2022-12-01T18:41:19.997Z,52.30
2022-12-01T18:43:47.583Z,47.50
2022-12-01T18:46:16.589Z,52.78
2022-12-01T18:48:45.874Z,50.63
2022-12-01T18:51:13.333Z,53.83
2022-12-01T18:53:41.464Z,47.78
2022-12-01T18:56:11.862Z,51.97
2022-12-01T18:58:40.616Z,48.10
2022-12-01T19:01:43.906Z,46.58
2022-12-01T19:04:12.336Z,44.25
2022-12-01T19:06:41.517Z,46.28
2022-12-01T19:09:10.858Z,54.10
2022-12-01T19:11:40.526Z,48.28
2022-12-01T19:14:12.062Z,48.30
2022-12-01T19:16:39.623Z,45.65
2022-12-01T19:19:07.168Z,54.35
2022-12-01T19:21:34.551Z,52.08
2022-12-01T19:24:01.867Z,44.85
2022-12-01T19:26:29.202Z,74.57
2022-12-01T19:28:56.500Z,52.22
2022-12-01T19:31:24.902Z,58.25
2022-12-01T19:33:54.104Z,50.80
2022-12-01T19:36:24.031Z,50.05
2022-12-01T19:38:52.752Z,50.88
2022-12-01T19:41:20.955Z,54.45
2022-12-01T19:43:48.638Z,54.00
2022-12-01T19:46:19.425Z,48.47
2022-12-01T19:48:47.721Z,50.83
2022-12-01T19:51:26.505Z,71.72
2022-12-01T19:53:54.742Z,64.00
2022-12-01T19:56:22.920Z,57.95
2022-12-01T19:58:50.778Z,72.50
2022-12-01T20:01:19.776Z,67.85
2022-12-01T20:03:52.053Z,87.28
2022-12-01T20:06:22.344Z,81.03
2022-12-01T20:08:50.224Z,65.10
2022-12-01T20:11:18.009Z,107.20
2022-12-01T20:13:47.924Z,78.07
2022-12-01T20:18:42.725Z,68.38
2022-12-01T20:21:16.696Z,82.57
2022-12-01T20:23:47.445Z,105.30
2022-12-01T20:26:16.180Z,94.47
2022-12-01T20:28:45.243Z,110.00
2022-12-01T20:31:18.979Z,76.93
2022-12-01T20:33:46.377Z,79.50
2022-12-01T20:36:15.125Z,73.10
2022-12-01T20:38:42.785Z,80.15
2022-12-01T20:41:11.605Z,80.43
2022-12-01T20:43:39.148Z,74.80
2022-12-01T20:46:07.213Z,79.82
2022-12-01T20:48:35.370Z,83.43
2022-12-01T20:51:05.077Z,79.20
2022-12-01T20:53:32.947Z,75.85
2022-12-01T20:56:04.835Z,72.00
2022-12-01T20:58:37.235Z,79.13
2022-12-01T21:01:23.538Z,95.65
2022-12-01T21:03:51.473Z,109.88
2022-12-01T21:06:19.459Z,100.30
2022-12-01T21:08:48.744Z,105.65
2022-12-01T21:11:19.074Z,94.50
2022-12-01T21:13:46.920Z,91.00
2022-12-01T21:16:14.584Z,99.13
2022-12-01T21:19:06.480Z,104.18
2022-12-01T21:21:42.815Z,114.40
2022-12-01T21:24:13.685Z,95.32
2022-12-01T21:26:48.070Z,96.18
2022-12-01T21:29:26.847Z,95.95
2022-12-01T21:32:00.210Z,93.25
2022-12-01T21:34:28.852Z,84.22
2022-12-01T21:37:00.059Z,74.88
2022-12-01T21:39:30.161Z,85.88
2022-12-01T21:42:06.905Z,86.57
2022-12-01T21:44:37.397Z,84.18
2022-12-01T21:47:23.871Z,108.82
2022-12-01T21:49:54.147Z,108.50
2022-12-01T21:52:39.664Z,102.90
2022-12-01T21:55:16.267Z,143.13
2022-12-01T21:57:46.201Z,154.15
2022-12-01T22:03:07.785Z,120.40
2022-12-01T22:05:40.415Z,151.57
2022-12-01T22:08:07.906Z,145.07
2022-12-01T22:10:56.921Z,138.18
2022-12-01T22:13:52.125Z,116.97
2022-12-01T22:16:29.898Z,119.35
2022-12-01T22:18:59.515Z,140.27
2022-12-01T22:21:41.321Z,125.93
2022-12-01T22:24:08.654Z,118.22
2022-12-01T22:26:44.510Z,113.13
2022-12-01T22:29:28.912Z,122.80
2022-12-01T22:32:14.534Z,129.60
2022-12-01T22:34:49.598Z,150.75
2022-12-01T22:37:43.598Z,138.45
2022-12-01T22:40:32.947Z,135.75
2022-12-01T22:43:15.503Z,146.07
2022-12-01T22:45:53.088Z,138.13
2022-12-01T22:48:32.558Z,138.45
2022-12-01T22:51:14.605Z,137.25
2022-12-01T22:53:43.934Z,142.15
2022-12-01T22:56:41.830Z,146.25
2022-12-01T22:59:23.537Z,162.95
2022-12-01T23:01:56.104Z,149.30
2022-12-01T23:04:26.664Z,160.10
2022-12-01T23:07:26.883Z,180.48
2022-12-01T23:09:58.277Z,197.32
2022-12-01T23:12:33.678Z,218.18
2022-12-01T23:15:21.318Z,222.60
2022-12-01T23:17:49.477Z,212.82
2022-12-01T23:20:34.454Z,210.35
2022-12-01T23:23:05.377Z,213.02
2022-12-01T23:25:35.080Z,190.07
2022-12-01T23:28:06.019Z,194.98
2022-12-01T23:30:36.008Z,186.02
2022-12-01T23:35:46.731Z,155.57
2022-12-01T23:38:20.366Z,145.48
2022-12-01T23:40:49.220Z,141.65
2022-12-01T23:43:24.301Z,126.28
2022-12-01T23:46:04.684Z,147.23
2022-12-01T23:48:37.384Z,135.70
2022-12-01T23:51:11.459Z,123.57
2022-12-01T23:53:40.323Z,129.25
2022-12-01T23:56:18.821Z,127.55
2022-12-01T23:58:46.506Z,128.38
